Time;durP1;ratioP1;P1;durP2;ratioP2;P2;SDS_P1;SDS_P2;PMS_P1;PMS_P2;Temp;Humidity;BMP_temperature;BMP_pressure;BME280_temperature;BME280_humidity;BME280_pressure;Samples;Min_cycle;Max_cycle;Signal;HPM_P1;HPM_P2
2020/12/12 00:02:17;;;;;;;68.00;32.85;;;205.00;2099.20;;;;;;5072260;28;20539;-66
2020/12/12 00:04:43;;;;;;;71.07;32.55;;;205.10;2099.20;;;;;;5072111;28;20060;-68
2020/12/12 00:07:09;;;;;;;70.93;32.92;;;205.00;2099.20;;;;;;5069560;28;20020;-66
2020/12/12 00:09:36;;;;;;;72.90;33.50;;;205.10;2099.20;;;;;;5071941;28;20041;-69
2020/12/12 00:12:02;;;;;;;66.65;32.00;;;205.30;2048.00;;;;;;5071762;28;20032;-67
2020/12/12 00:14:28;;;;;;;67.68;32.50;;;205.20;2048.00;;;;;;5071947;28;20095;-67
2020/12/12 00:16:55;;;;;;;66.40;33.63;;;205.10;2073.60;;;;;;5072428;28;20158;-67
2020/12/12 00:19:21;;;;;;;78.57;32.90;;;205.10;2073.60;;;;;;5072040;28;20463;-67
2020/12/12 00:21:54;;;;;;;67.30;31.80;;;205.10;2073.60;;;;;;5071988;28;20021;-68
2020/12/12 00:24:21;;;;;;;65.72;32.00;;;205.10;2073.60;;;;;;5071942;28;20032;-67
2020/12/12 00:26:47;;;;;;;63.33;31.20;;;205.30;2048.00;;;;;;5072317;28;20039;-65
2020/12/12 00:29:14;;;;;;;65.80;31.15;;;205.20;2048.00;;;;;;5072363;28;20028;-70
2020/12/12 00:31:43;;;;;;;62.65;30.42;;;205.20;2073.60;;;;;;5071914;28;20104;-70
2020/12/12 00:34:09;;;;;;;;;;;205.20;2048.00;;;;;;5072626;28;20031;-70
2020/12/12 00:36:39;;;;;;;57.80;27.75;;;205.10;2073.60;;;;;;5071031;28;20148;-71
2020/12/12 00:39:06;;;;;;;56.67;28.05;;;205.10;2073.60;;;;;;5071301;28;20048;-71
2020/12/12 00:41:39;;;;;;;59.78;29.67;;;204.80;2099.20;;;;;;5070718;28;20408;-71
2020/12/12 00:44:06;;;;;;;60.78;28.45;;;204.90;2099.20;;;;;;5070736;28;20506;-72
2020/12/12 00:46:33;;;;;;;59.10;28.23;;;205.00;2073.60;;;;;;5070693;28;20028;-72
2020/12/12 00:48:59;;;;;;;62.72;30.35;;;205.10;2073.60;;;;;;5070505;28;20048;-72
2020/12/12 00:51:25;;;;;;;62.53;30.77;;;205.10;2073.60;;;;;;5070625;28;20347;-73
2020/12/12 00:53:51;;;;;;;62.00;29.27;;;205.20;2048.00;;;;;;5071556;28;20027;-70
2020/12/12 00:56:17;;;;;;;64.28;29.60;;;205.20;2048.00;;;;;;5071527;28;20457;-70
2020/12/12 00:58:43;;;;;;;59.35;28.00;;;205.10;2073.60;;;;;;5072138;28;20020;-70
2020/12/12 01:01:10;;;;;;;55.78;30.20;;;205.10;2073.60;;;;;;5068709;28;20036;-63
2020/12/12 01:03:36;;;;;;;56.30;27.35;;;205.20;2048.00;;;;;;5071012;28;20103;-64
2020/12/12 01:06:02;;;;;;;57.45;28.23;;;205.30;2048.00;;;;;;5066637;28;20119;-63
2020/12/12 01:08:28;;;;;;;63.40;29.90;;;205.30;2048.00;;;;;;5072367;28;20060;-69
2020/12/12 01:10:53;;;;;;;61.28;30.15;;;205.10;2048.00;;;;;;5052140;28;20431;-70
2020/12/12 01:13:19;;;;;;;54.42;27.58;;;205.10;2073.60;;;;;;5073219;28;20505;-69
2020/12/12 01:15:45;;;;;;;59.05;29.42;;;205.10;2048.00;;;;;;5072947;28;20020;-71
2020/12/12 01:18:11;;;;;;;66.45;30.15;;;205.10;2048.00;;;;;;5073348;28;20111;-72
2020/12/12 01:20:38;;;;;;;60.00;28.58;;;205.20;2048.00;;;;;;5072904;28;20028;-71
2020/12/12 01:23:04;;;;;;;59.60;28.63;;;205.20;2048.00;;;;;;5073160;28;20028;-70
2020/12/12 01:25:29;;;;;;;65.63;30.55;;;205.20;2048.00;;;;;;5073038;28;20040;-71
2020/12/12 01:27:55;;;;;;;65.47;30.35;;;205.20;2048.00;;;;;;5072764;28;20141;-72
2020/12/12 01:30:21;;;;;;;64.63;29.25;;;205.10;2048.00;;;;;;5073176;28;20029;-71
2020/12/12 01:32:47;;;;;;;60.92;28.92;;;205.20;2048.00;;;;;;5054384;28;20036;-70
2020/12/12 01:35:13;;;;;;;57.70;28.83;;;205.20;2022.40;;;;;;5073256;28;20478;-71
2020/12/12 01:37:39;;;;;;;56.30;27.17;;;205.20;2048.00;;;;;;5072908;28;20028;-73
2020/12/12 01:40:04;;;;;;;55.10;27.08;;;205.40;2022.40;;;;;;5073224;28;20047;-72
2020/12/12 01:42:33;;;;;;;64.13;29.73;;;205.20;2048.00;;;;;;5072511;28;20031;-71
2020/12/12 01:44:59;;;;;;;;;;;205.10;2048.00;;;;;;5073312;28;20048;-65
2020/12/12 01:47:27;;;;;;;61.55;27.73;;;205.20;2048.00;;;;;;5072804;28;19997;-66
2020/12/12 01:49:53;;;;;;;61.90;28.10;;;205.20;2048.00;;;;;;5072594;28;20368;-67
2020/12/12 01:52:22;;;;;;;60.03;30.05;;;205.10;2073.60;;;;;;5072393;28;20246;-68
2020/12/12 01:54:48;;;;;;;;;;;205.10;2048.00;;;;;;5073089;28;20475;-67
2020/12/12 01:57:23;;;;;;;58.28;26.30;;;205.30;2022.40;;;;;;5053912;28;19911;-72
2020/12/12 01:59:49;;;;;;;55.10;26.90;;;205.30;2022.40;;;;;;5054565;28;20455;-71
2020/12/12 02:02:16;;;;;;;58.00;26.88;;;205.10;2048.00;;;;;;5072586;28;20024;-67
2020/12/12 02:04:48;;;;;;;51.15;25.63;;;205.00;2048.00;;;;;;5072641;28;20040;-71
2020/12/12 02:07:16;;;;;;;54.92;26.05;;;204.90;2073.60;;;;;;5072881;28;20023;-69
2020/12/12 02:09:44;;;;;;;52.58;25.20;;;204.80;2073.60;;;;;;5070893;28;20035;-67
2020/12/12 02:12:10;;;;;;;50.63;24.38;;;180.10;2099.20;;;;;;5072381;28;20107;-67
2020/12/12 02:14:38;;;;;;;51.33;23.42;;;204.80;2099.20;;;;;;5068698;28;20028;-67
2020/12/12 02:17:05;;;;;;;49.00;23.60;;;204.90;2252.80;;;;;;5072309;28;20021;-67
2020/12/12 02:19:32;;;;;;;48.95;23.92;;;204.90;2048.00;;;;;;5070163;28;20044;-67
2020/12/12 02:22:03;;;;;;;43.75;21.40;;;204.90;2048.00;;;;;;5071998;28;20016;-71
2020/12/12 02:24:33;;;;;;;44.38;22.35;;;205.00;2048.00;;;;;;5072564;28;20374;-71
2020/12/12 02:27:03;;;;;;;53.20;23.88;;;205.10;2022.40;;;;;;5072154;28;20029;-69
2020/12/12 02:29:41;;;;;;;52.17;23.45;;;205.10;2022.40;;;;;;5072096;28;20075;-71
2020/12/12 02:32:07;;;;;;;50.08;23.02;;;204.90;2048.00;;;;;;5072651;28;20028;-70
2020/12/12 02:34:34;;;;;;;54.45;24.65;;;205.00;2048.00;;;;;;5072173;28;20040;-71
2020/12/12 02:36:59;;;;;;;50.58;23.40;;;205.10;2048.00;;;;;;5072079;28;20036;-71
2020/12/12 02:39:25;;;;;;;61.22;24.85;;;205.00;2048.00;;;;;;5072315;28;20025;-68
2020/12/12 02:41:51;;;;;;;56.72;26.10;;;205.00;2048.00;;;;;;5071874;28;20409;-72
2020/12/12 02:44:16;;;;;;;59.97;26.13;;;204.90;2073.60;;;;;;5072348;28;20499;-73
2020/12/12 02:46:42;;;;;;;56.88;25.27;;;204.90;2073.60;;;;;;5072020;28;20031;-72
2020/12/12 02:49:08;;;;;;;57.42;23.88;;;204.90;2073.60;;;;;;5072129;28;20118;-69
2020/12/12 02:51:39;;;;;;;55.95;24.42;;;204.90;2073.60;;;;;;5072008;28;20025;-71
2020/12/12 02:54:04;;;;;;;52.53;24.85;;;205.00;2073.60;;;;;;5058595;28;20036;-69
2020/12/12 02:56:30;;;;;;;60.20;24.88;;;205.00;2048.00;;;;;;5072326;28;20032;-70
2020/12/12 02:58:56;;;;;;;61.67;26.33;;;204.90;2073.60;;;;;;5071689;28;20039;-71
2020/12/12 03:01:22;;;;;;;67.70;28.10;;;205.00;2073.60;;;;;;5071777;28;20466;-72
2020/12/12 03:03:47;;;;;;;59.50;26.60;;;205.00;2073.60;;;;;;5071953;28;20368;-74
2020/12/12 03:06:13;;;;;;;53.13;25.70;;;205.10;2048.00;;;;;;5071529;28;20122;-70
2020/12/12 03:08:39;;;;;;;55.38;24.10;;;205.10;2048.00;;;;;;5073665;28;20044;-68
2020/12/12 03:11:04;;;;;;;49.22;22.08;;;205.10;2048.00;;;;;;5076167;28;20035;-69
2020/12/12 03:13:30;;;;;;;50.20;22.00;;;205.10;2048.00;;;;;;5075621;28;20035;-72
2020/12/12 03:15:56;;;;;;;51.38;23.15;;;205.00;2048.00;;;;;;5075302;28;20056;-65
2020/12/12 03:18:21;;;;;;;42.90;20.50;;;204.90;2073.60;;;;;;5075788;28;20032;-71
2020/12/12 03:20:47;;;;;;;39.60;19.95;;;204.90;2048.00;;;;;;5075141;28;20028;-66
2020/12/12 03:23:13;;;;;;;45.42;20.50;;;204.80;2073.60;;;;;;5076039;28;20025;-70
2020/12/12 03:25:40;;;;;;;47.83;22.33;;;180.00;2099.20;;;;;;5075038;28;20027;-72
2020/12/12 03:28:06;;;;;;;44.42;21.05;;;179.90;2099.20;;;;;;5075637;28;20148;-71
2020/12/12 03:30:36;;;;;;;43.97;21.35;;;180.00;2099.20;;;;;;5075601;28;20036;-67
2020/12/12 03:33:03;;;;;;;47.15;21.13;;;179.90;2124.80;;;;;;5073059;28;20028;-70
2020/12/12 03:35:28;;;;;;;46.63;20.17;;;179.90;2124.80;;;;;;5074995;28;20066;-73
2020/12/12 03:37:55;;;;;;;46.08;21.38;;;179.90;2124.80;;;;;;5055795;28;20434;-71
2020/12/12 03:40:23;;;;;;;42.97;21.58;;;179.60;2150.40;;;;;;5075101;28;20153;-73
2020/12/12 03:42:53;;;;;;;48.42;21.52;;;179.70;2150.40;;;;;;5074883;28;20462;-68
2020/12/12 03:45:22;;;;;;;42.70;21.10;;;179.70;2150.40;;;;;;5075021;28;20077;-72
2020/12/12 03:47:49;;;;;;;45.30;20.65;;;179.80;2124.80;;;;;;5075181;28;20025;-70
2020/12/12 03:50:15;;;;;;;52.75;22.92;;;180.00;2124.80;;;;;;5074811;28;20115;-66
2020/12/12 03:52:41;;;;;;;51.42;22.52;;;180.00;2099.20;;;;;;5075016;28;20023;-70
2020/12/12 03:55:07;;;;;;;48.30;23.33;;;179.90;2124.80;;;;;;5074755;28;20052;-72
2020/12/12 03:57:33;;;;;;;44.10;21.42;;;179.80;2124.80;;;;;;5074817;28;20467;-71
2020/12/12 03:59:59;;;;;;;45.63;21.65;;;179.80;2150.40;;;;;;5075062;28;20053;-67
2020/12/12 04:02:24;;;;;;;43.15;22.30;;;179.80;2150.40;;;;;;5074923;28;20028;-70
2020/12/12 04:04:50;;;;;;;47.03;21.30;;;179.80;2150.40;;;;;;5074426;28;20041;-68
2020/12/12 04:07:16;;;;;;;44.58;21.85;;;179.80;2124.80;;;;;;5074574;28;20013;-70
2020/12/12 04:09:41;;;;;;;49.92;23.77;;;179.90;2124.80;;;;;;5074744;28;20390;-71
2020/12/12 04:12:07;;;;;;;45.53;23.42;;;179.90;2124.80;;;;;;5074338;28;20027;-71
2020/12/12 04:14:33;;;;;;;45.53;23.83;;;180.00;2124.80;;;;;;5074447;28;20029;-68
2020/12/12 04:16:58;;;;;;;45.95;21.38;;;179.70;2150.40;;;;;;5074243;28;20025;-71
2020/12/12 04:19:24;;;;;;;43.88;21.60;;;180.00;2124.80;;;;;;5073987;28;20104;-69
2020/12/12 04:21:50;;;;;;;45.67;22.63;;;180.00;2124.80;;;;;;5073741;28;20025;-71
2020/12/12 04:24:16;;;;;;;44.53;21.00;;;179.90;2124.80;;;;;;5074446;28;20035;-68
2020/12/12 04:26:42;;;;;;;43.25;22.17;;;179.80;2124.80;;;;;;5074332;28;20052;-71
2020/12/12 04:29:07;;;;;;;43.63;22.92;;;180.00;2124.80;;;;;;5073941;28;20458;-71
2020/12/12 04:31:33;;;;;;;41.38;22.13;;;180.00;2124.80;;;;;;5074256;28;20396;-67
2020/12/12 04:34:00;;;;;;;43.08;21.83;;;180.00;2124.80;;;;;;5074088;28;20040;-72
2020/12/12 04:36:26;;;;;;;43.45;22.02;;;180.10;2099.20;;;;;;5074131;28;20536;-70
2020/12/12 04:38:51;;;;;;;45.65;23.90;;;180.10;2099.20;;;;;;5073040;28;20032;-66
2020/12/12 04:41:18;;;;;;;46.75;24.48;;;180.00;2099.20;;;;;;5073790;28;20021;-71
2020/12/12 04:43:44;;;;;;;48.20;24.27;;;180.10;2124.80;;;;;;5074164;28;20099;-71
2020/12/12 04:46:11;;;;;;;44.55;23.73;;;180.00;2124.80;;;;;;5073965;28;20474;-66
2020/12/12 04:48:38;;;;;;;45.17;24.10;;;180.00;2124.80;;;;;;5073525;28;20060;-69
2020/12/12 04:51:05;;;;;;;46.97;24.10;;;204.80;2099.20;;;;;;5073554;28;20059;-71
2020/12/12 04:53:31;;;;;;;47.38;23.98;;;204.80;2099.20;;;;;;5074002;28;20378;-71
2020/12/12 04:55:57;;;;;;;42.88;24.02;;;180.10;2099.20;;;;;;5073397;28;20394;-69
2020/12/12 04:58:27;;;;;;;52.10;25.73;;;180.10;2124.80;;;;;;5073733;28;20029;-71
2020/12/12 05:00:55;;;;;;;44.05;22.67;;;180.10;2124.80;;;;;;5073401;28;20037;-70
2020/12/12 05:03:22;;;;;;;47.28;25.23;;;180.00;2124.80;;;;;;5058452;28;20071;-71
2020/12/12 05:05:48;;;;;;;49.00;23.38;;;180.00;2124.80;;;;;;5073273;28;20470;-71
2020/12/12 05:08:14;;;;;;;52.10;23.85;;;180.00;2124.80;;;;;;5073316;28;20021;-71
2020/12/12 05:10:51;;;;;;;51.15;24.83;;;180.10;2124.80;;;;;;5073496;28;20043;-72
2020/12/12 05:13:21;;;;;;;48.72;23.83;;;180.10;2099.20;;;;;;5055213;28;20024;-70
2020/12/12 05:15:48;;;;;;;53.00;26.48;;;180.10;2099.20;;;;;;5073212;28;20036;-70
2020/12/12 05:18:14;;;;;;;49.58;24.88;;;180.00;2124.80;;;;;;5073211;28;20427;-74
2020/12/12 05:20:40;;;;;;;51.90;25.85;;;180.00;2124.80;;;;;;5073182;28;20046;-72
2020/12/12 05:23:17;;;;;;;50.42;26.60;;;180.10;2124.80;;;;;;5073092;28;20021;-70
2020/12/12 05:25:44;;;;;;;52.33;25.77;;;204.80;2099.20;;;;;;5073228;28;20086;-72
2020/12/12 05:28:13;;;;;;;53.05;26.38;;;180.00;2124.80;;;;;;5073206;28;20520;-71
2020/12/12 05:30:44;;;;;;;53.42;27.23;;;180.00;2124.80;;;;;;5072813;28;20029;-69
2020/12/12 05:33:13;;;;;;;49.15;24.33;;;179.80;2150.40;;;;;;5072998;28;20108;-70
2020/12/12 05:35:39;;;;;;;50.10;26.85;;;180.00;2124.80;;;;;;5073157;28;20044;-69
2020/12/12 05:38:09;;;;;;;51.78;27.90;;;179.60;2176.00;;;;;;5054746;28;20024;-74
2020/12/12 05:40:35;;;;;;;48.55;25.65;;;179.60;2176.00;;;;;;5072692;28;20051;-72
2020/12/12 05:43:09;;;;;;;57.55;25.90;;;179.90;2150.40;;;;;;5072906;28;20036;-69
2020/12/12 05:45:35;;;;;;;54.15;25.48;;;179.60;2201.60;;;;;;5072634;28;20021;-71
2020/12/12 05:48:03;;;;;;;45.05;24.58;;;179.80;2150.40;;;;;;5072427;28;20457;-74
2020/12/12 05:50:29;;;;;;;53.45;27.13;;;179.90;2150.40;;;;;;5072763;28;20036;-71
2020/12/12 05:52:56;;;;;;;53.13;27.05;;;180.00;2124.80;;;;;;5072562;28;20082;-71
2020/12/12 05:55:28;;;;;;;52.10;24.33;;;180.10;2124.80;;;;;;5072847;28;20036;-74
2020/12/12 05:57:55;;;;;;;51.30;24.95;;;180.00;2124.80;;;;;;5068439;28;20028;-70
2020/12/12 06:00:23;;;;;;;50.78;26.48;;;180.00;2124.80;;;;;;5072507;28;20021;-71
2020/12/12 06:03:03;;;;;;;51.33;27.23;;;179.80;2150.40;;;;;;5072766;28;20104;-71
2020/12/12 06:05:30;;;;;;;48.25;26.20;;;179.80;2150.40;;;;;;5072664;28;20387;-69
2020/12/12 06:07:58;;;;;;;48.22;25.92;;;179.80;2176.00;;;;;;5072375;28;20548;-70
2020/12/12 06:10:29;;;;;;;54.47;28.33;;;179.50;2176.00;;;;;;5072341;28;20041;-72
2020/12/12 06:13:00;;;;;;;52.95;26.65;;;179.60;2176.00;;;;;;5053985;28;20418;-72
2020/12/12 06:15:39;;;;;;;54.20;28.02;;;179.70;2176.00;;;;;;5072563;28;20112;-68
2020/12/12 06:18:20;;;;;;;56.47;26.77;;;179.60;2201.60;;;;;;5072310;28;20532;-74
2020/12/12 06:20:49;;;;;;;51.83;25.60;;;179.80;2176.00;;;;;;5072437;28;20590;-72
2020/12/12 06:23:16;;;;;;;54.65;26.70;;;179.80;2176.00;;;;;;5054340;28;20025;-70
2020/12/12 06:25:42;;;;;;;55.67;26.20;;;179.90;2150.40;;;;;;5072207;28;20043;-69
2020/12/12 06:28:11;;;;;;;56.50;26.92;;;179.90;2150.40;;;;;;5071975;28;20021;-67
2020/12/12 06:30:38;;;;;;;62.60;30.13;;;180.00;2150.40;;;;;;5072249;28;20371;-70
2020/12/12 06:33:04;;;;;;;54.83;29.15;;;204.80;2124.80;;;;;;5072188;28;20032;-68
2020/12/12 06:35:34;;;;;;;61.00;31.65;;;204.80;2124.80;;;;;;5072497;28;20024;-69
2020/12/12 06:38:27;;;;;;;60.70;31.55;;;180.10;2124.80;;;;;;5071826;28;20064;-67
2020/12/12 06:40:58;;;;;;;63.45;31.70;;;180.10;2099.20;;;;;;5069529;28;20036;-70
2020/12/12 06:43:27;;;;;;;61.38;30.65;;;180.10;2124.80;;;;;;5073644;28;20095;-67
2020/12/12 06:45:54;;;;;;;66.00;32.75;;;179.90;2124.80;;;;;;5058174;28;20028;-69
2020/12/12 06:48:28;;;;;;;64.18;29.42;;;179.80;2176.00;;;;;;5076214;28;20528;-69
2020/12/12 06:51:00;;;;;;;64.68;31.10;;;179.90;2150.40;;;;;;5057582;28;20399;-68
2020/12/12 06:53:30;;;;;;;62.35;31.52;;;180.00;2150.40;;;;;;5075938;28;20024;-66
2020/12/12 06:56:11;;;;;;;71.00;34.20;;;179.70;2176.00;;;;;;5075937;28;20024;-68
2020/12/12 06:58:37;;;;;;;66.30;30.48;;;179.30;2227.20;;;;;;5076123;28;20025;-66
2020/12/12 07:01:35;;;;;;;65.13;33.47;;;179.30;2227.20;;;;;;5057453;28;20043;-67
2020/12/12 07:04:03;;;;;;;64.53;30.25;;;179.80;2176.00;;;;;;5075833;28;20029;-68
2020/12/12 07:06:31;;;;;;;64.30;31.02;;;180.00;2124.80;;;;;;5075492;28;20049;-68
2020/12/12 07:09:08;;;;;;;68.75;33.35;;;180.10;2124.80;;;;;;5075890;28;20028;-66
2020/12/12 07:11:35;;;;;;;63.65;29.65;;;204.80;2124.80;;;;;;5044494;28;20025;-70
2020/12/12 07:14:02;;;;;;;65.43;30.33;;;204.90;2099.20;;;;;;5075926;28;20028;-66
2020/12/12 07:16:28;;;;;;;59.75;29.90;;;205.00;2073.60;;;;;;5075553;28;20059;-67
2020/12/12 07:18:54;;;;;;;54.25;28.05;;;205.20;2048.00;;;;;;5075456;28;20048;-68
2020/12/12 07:21:21;;;;;;;57.17;29.85;;;205.10;2073.60;;;;;;5075267;28;20020;-69
2020/12/12 07:23:48;;;;;;;56.00;28.63;;;205.30;2048.00;;;;;;5075835;28;20070;-66
2020/12/12 07:26:14;;;;;;;59.30;29.27;;;205.50;2022.40;;;;;;5075265;28;20039;-67
2020/12/12 07:28:40;;;;;;;57.83;27.20;;;205.40;2022.40;;;;;;5074162;28;20060;-68
2020/12/12 07:31:06;;;;;;;48.63;25.90;;;205.40;2022.40;;;;;;5075027;28;20074;-69
2020/12/12 07:33:32;;;;;;;48.22;25.73;;;205.70;1996.80;;;;;;5075114;28;20033;-69
2020/12/12 07:35:58;;;;;;;37.20;23.25;;;205.70;1996.80;;;;;;5075160;28;20032;-69
2020/12/12 07:38:24;;;;;;;37.30;21.02;;;230.40;1971.20;;;;;;5057154;28;20162;-69
2020/12/12 07:40:50;;;;;;;39.35;21.38;;;230.40;1971.20;;;;;;5074952;28;20107;-72
2020/12/12 07:43:16;;;;;;;35.10;21.63;;;230.50;1971.20;;;;;;5074980;28;20020;-66
2020/12/12 07:48:17;;;;;;;29.83;17.23;;;230.60;1945.60;;;;;;5075145;28;20029;-68
2020/12/12 07:50:43;;;;;;;27.00;16.38;;;230.60;1945.60;;;;;;5057024;28;20390;-66
2020/12/12 07:53:14;;;;;;;24.65;15.45;;;230.80;1894.40;;;;;;5074687;28;20021;-70
2020/12/12 07:55:43;;;;;;;25.05;14.82;;;230.70;1894.40;;;;;;5073595;28;20106;-71
2020/12/12 07:58:27;;;;;;;32.35;16.52;;;230.90;1868.80;;;;;;5074527;28;20031;-69
2020/12/12 08:01:00;;;;;;;30.45;16.23;;;231.00;1868.80;;;;;;5074665;28;20102;-68
2020/12/12 08:03:25;;;;;;;24.83;14.75;;;231.20;1843.20;;;;;;5074619;28;20028;-72
2020/12/12 08:06:09;;;;;;;23.70;15.40;;;231.00;1868.80;;;;;;5074551;28;20403;-71
2020/12/12 08:08:36;;;;;;;27.13;14.68;;;231.20;1843.20;;;;;;5074454;28;20115;-70
2020/12/12 08:11:03;;;;;;;24.60;14.15;;;256.00;1792.00;;;;;;5074453;28;20025;-73
2020/12/12 08:13:29;;;;;;;26.23;14.73;;;231.20;1817.60;;;;;;5074654;28;20381;-69
2020/12/12 08:16:09;;;;;;;24.63;15.38;;;256.00;1817.60;;;;;;5074115;28;20107;-75
2020/12/12 08:18:34;;;;;;;25.15;14.05;;;256.10;1817.60;;;;;;5056167;28;20125;-66
2020/12/12 08:21:11;;;;;;;21.88;13.13;;;256.20;1792.00;;;;;;5074204;28;20063;-67
2020/12/12 08:23:37;;;;;;;24.65;13.82;;;256.30;1766.40;;;;;;5074205;28;20107;-68
2020/12/12 08:26:04;;;;;;;19.23;13.57;;;256.10;1766.40;;;;;;5074092;28;20024;-69
2020/12/12 08:28:31;;;;;;;24.02;13.85;;;256.20;1792.00;;;;;;5074468;28;20028;-68
2020/12/12 08:31:16;;;;;;;27.35;15.60;;;256.10;1766.40;;;;;;5073505;28;20110;-67
2020/12/12 08:33:44;;;;;;;25.92;16.30;;;256.20;1766.40;;;;;;5074463;28;20036;-69
2020/12/12 08:36:15;;;;;;;29.10;16.90;;;256.40;1766.40;;;;;;5073975;28;20035;-69
2020/12/12 08:38:43;;;;;;;29.10;18.25;;;256.20;1792.00;;;;;;5073988;28;20059;-69
2020/12/12 08:41:12;;;;;;;30.38;17.80;;;256.60;1740.80;;;;;;5072350;28;20054;-68
2020/12/12 08:43:41;;;;;;;27.63;17.10;;;256.50;1740.80;;;;;;5074339;28;20434;-69
2020/12/12 08:46:07;;;;;;;28.75;17.23;;;256.60;1740.80;;;;;;5073951;28;20021;-67
2020/12/12 08:48:37;;;;;;;27.17;18.88;;;256.70;1715.20;;;;;;5073880;28;20040;-69
2020/12/12 08:51:07;;;;;;;29.45;18.40;;;256.60;1740.80;;;;;;5073344;28;20021;-68
2020/12/12 08:53:39;;;;;;;33.58;18.90;;;256.50;1715.20;;;;;;5073676;28;20478;-69
2020/12/12 08:56:22;;;;;;;28.58;18.63;;;256.50;1740.80;;;;;;5073487;28;20032;-68
2020/12/12 08:59:00;;;;;;;28.63;17.95;;;256.50;1766.40;;;;;;5073818;28;20115;-69
2020/12/12 09:01:33;;;;;;;32.10;18.77;;;256.60;1740.80;;;;;;5073274;28;20533;-66
2020/12/12 09:04:03;;;;;;;30.88;19.00;;;281.60;1715.20;;;;;;5073476;28;20418;-73
2020/12/12 09:06:45;;;;;;;30.02;19.00;;;256.90;1689.60;;;;;;5072503;28;20049;-73
2020/12/12 09:09:19;;;;;;;36.83;19.75;;;281.70;1715.20;;;;;;5065012;28;20116;-72
2020/12/12 09:11:56;;;;;;;33.42;19.75;;;281.60;1715.20;;;;;;5055153;28;20044;-72
2020/12/12 09:14:22;;;;;;;26.30;17.92;;;281.70;1715.20;;;;;;5073336;28;20020;-70
2020/12/12 09:16:57;;;;;;;27.90;17.00;;;281.80;1689.60;;;;;;5073222;28;20032;-72
2020/12/12 09:19:24;;;;;;;29.23;18.60;;;281.90;1689.60;;;;;;5073297;28;20023;-69
2020/12/12 09:21:51;;;;;;;27.13;17.50;;;281.80;1689.60;;;;;;5073128;28;20020;-73
2020/12/12 09:24:18;;;;;;;29.08;17.48;;;281.70;1715.20;;;;;;5073174;28;20034;-72
2020/12/12 09:26:44;;;;;;;38.58;19.00;;;281.60;1715.20;;;;;;5072953;28;20128;-72
2020/12/12 09:29:10;;;;;;;30.48;20.48;;;256.90;1715.20;;;;;;5072870;28;20036;-68
2020/12/12 09:31:36;;;;;;;29.25;19.10;;;281.80;1715.20;;;;;;5072963;28;20078;-69
2020/12/12 09:34:02;;;;;;;30.88;19.13;;;281.80;1715.20;;;;;;5073159;28;20071;-72
2020/12/12 09:36:27;;;;;;;31.75;19.10;;;281.90;1689.60;;;;;;5073088;28;20070;-65
2020/12/12 09:38:53;;;;;;;31.73;19.33;;;282.00;1689.60;;;;;;5072794;28;20056;-72
2020/12/12 09:41:19;;;;;;;33.25;18.13;;;282.10;1689.60;;;;;;5072649;28;20039;-71
2020/12/12 09:43:45;;;;;;;26.75;17.40;;;282.40;1664.00;;;;;;5072806;28;20023;-71
2020/12/12 09:46:10;;;;;;;24.85;14.80;;;307.20;1638.40;;;;;;5072618;28;20388;-70
2020/12/12 09:48:37;;;;;;;25.65;15.23;;;307.30;1638.40;;;;;;5072673;28;20099;-69
2020/12/12 09:51:04;;;;;;;26.85;16.67;;;307.50;1612.80;;;;;;5072355;28;20021;-68
2020/12/12 09:53:30;;;;;;;24.02;14.40;;;307.30;1638.40;;;;;;5072770;28;20061;-69
2020/12/12 09:55:56;;;;;;;17.50;12.75;;;307.20;1638.40;;;;;;5072560;28;20412;-71
2020/12/12 09:58:25;;;;;;;23.85;14.57;;;307.20;1638.40;;;;;;5072553;28;20033;-72
2020/12/12 10:00:51;;;;;;;16.90;11.48;;;307.20;1638.40;;;;;;5072142;28;20542;-69
2020/12/12 10:03:18;;;;;;;16.65;10.75;;;282.50;1612.80;;;;;;5072786;28;20037;-71
2020/12/12 10:05:43;;;;;;;17.90;11.68;;;307.20;1612.80;;;;;;5072728;28;20040;-71
2020/12/12 10:08:09;;;;;;;20.17;12.55;;;307.20;1612.80;;;;;;5072224;28;20549;-69
2020/12/12 10:10:35;;;;;;;18.50;11.23;;;307.30;1612.80;;;;;;5072464;28;20036;-73
2020/12/12 10:13:00;;;;;;;16.73;11.52;;;307.50;1587.20;;;;;;5072289;28;20020;-70
2020/12/12 10:15:27;;;;;;;21.25;13.48;;;307.70;1561.60;;;;;;5072563;28;20060;-73
2020/12/12 10:17:54;;;;;;;20.42;13.27;;;307.70;1587.20;;;;;;5071111;28;20052;-68
2020/12/12 10:20:21;;;;;;;17.38;12.93;;;307.90;1561.60;;;;;;5072750;28;20029;-70
2020/12/12 10:22:48;;;;;;;19.52;12.70;;;332.80;1561.60;;;;;;5072174;28;20020;-72
2020/12/12 10:25:14;;;;;;;21.25;14.25;;;308.00;1561.60;;;;;;5072323;28;20024;-70
2020/12/12 10:27:40;;;;;;;18.50;12.68;;;308.10;1536.00;;;;;;5072347;28;20047;-75
2020/12/12 10:30:08;;;;;;;18.25;12.88;;;332.80;1536.00;;;;;;5072773;28;20453;-71
2020/12/12 10:32:35;;;;;;;19.15;13.07;;;308.00;1536.00;;;;;;5072676;28;20043;-73
2020/12/12 10:35:01;;;;;;;17.02;13.38;;;307.90;1561.60;;;;;;5072373;28;20047;-73
2020/12/12 10:37:26;;;;;;;18.65;12.25;;;307.80;1561.60;;;;;;5072222;28;20470;-69
2020/12/12 10:42:18;;;;;;;15.73;12.07;;;332.80;1561.60;;;;;;5072300;28;20031;-71
2020/12/12 10:44:43;;;;;;;20.48;13.40;;;332.80;1561.60;;;;;;5072316;28;20025;-72
2020/12/12 10:47:09;;;;;;;18.33;12.35;;;308.00;1536.00;;;;;;5053621;28;20028;-70
2020/12/12 10:49:35;;;;;;;19.95;11.90;;;307.90;1561.60;;;;;;5072053;28;20082;-71
2020/12/12 10:52:02;;;;;;;16.02;11.45;;;307.70;1561.60;;;;;;5071910;28;20035;-72
2020/12/12 10:54:28;;;;;;;16.95;10.80;;;307.80;1536.00;;;;;;5071953;28;20104;-73
2020/12/12 10:56:54;;;;;;;17.52;12.18;;;307.60;1561.60;;;;;;5071906;28;20029;-73
2020/12/12 10:59:20;;;;;;;16.55;11.90;;;307.50;1561.60;;;;;;5071934;28;20478;-71
2020/12/12 11:01:50;;;;;;;19.30;12.68;;;307.70;1561.60;;;;;;5072180;28;20107;-72
2020/12/12 11:04:16;;;;;;;19.55;12.80;;;307.70;1561.60;;;;;;5071651;28;20127;-66
2020/12/12 11:06:41;;;;;;;17.88;11.30;;;307.70;1561.60;;;;;;5053681;28;20112;-67
2020/12/12 11:09:13;;;;;;;14.30;10.20;;;307.40;1587.20;;;;;;5071912;28;20060;-67
2020/12/12 11:11:40;;;;;;;13.85;10.23;;;307.80;1561.60;;;;;;5058109;28;20016;-74
2020/12/12 11:14:07;;;;;;;13.20;9.93;;;308.00;1536.00;;;;;;5072137;28;20020;-68
2020/12/12 11:16:33;;;;;;;13.35;9.85;;;308.10;1536.00;;;;;;5053466;28;20021;-68
2020/12/12 11:18:59;;;;;;;11.35;8.68;;;332.90;1536.00;;;;;;5071831;28;20031;-67
2020/12/12 11:21:25;;;;;;;14.48;10.68;;;332.90;1536.00;;;;;;5071502;28;20043;-69
2020/12/12 11:23:54;;;;;;;12.73;9.60;;;333.10;1510.40;;;;;;5071743;28;20013;-72
2020/12/12 11:26:22;;;;;;;15.23;10.23;;;333.10;1484.80;;;;;;5071379;28;20118;-73
2020/12/12 11:28:48;;;;;;;15.70;11.35;;;333.10;1510.40;;;;;;5072353;28;20101;-72
2020/12/12 11:31:20;;;;;;;18.42;11.70;;;333.10;1484.80;;;;;;5075439;28;20025;-75
2020/12/12 11:33:50;;;;;;;15.88;10.93;;;333.10;1484.80;;;;;;5056962;28;20109;-73
2020/12/12 11:42:17;;;;;;;14.70;9.52;;;333.00;1484.80;;;;;;5075198;28;20013;-68
2020/12/12 11:44:58;;;;;;;12.95;8.52;;;333.00;1484.80;;;;;;5075193;28;20032;-67
2020/12/12 11:47:25;;;;;;;12.65;8.82;;;333.00;1484.80;;;;;;5074994;28;20052;-70
2020/12/12 11:49:51;;;;;;;13.73;8.52;;;332.90;1484.80;;;;;;5075414;28;20033;-71
2020/12/12 11:52:17;;;;;;;14.63;9.55;;;308.10;1459.20;;;;;;5074898;28;20100;-67
2020/12/12 11:54:43;;;;;;;12.70;8.30;;;308.10;1459.20;;;;;;5074925;28;20048;-70
2020/12/12 11:57:09;;;;;;;13.90;8.82;;;307.80;1484.80;;;;;;5074806;28;20063;-68
2020/12/12 11:59:35;;;;;;;12.05;7.32;;;307.80;1484.80;;;;;;5074971;28;20537;-69
2020/12/12 12:02:01;;;;;;;13.25;8.23;;;307.70;1510.40;;;;;;5056463;28;20132;-73
2020/12/12 12:04:27;;;;;;;14.70;9.23;;;307.50;1536.00;;;;;;5074506;28;20474;-69
2020/12/12 12:06:53;;;;;;;13.05;9.02;;;307.60;1510.40;;;;;;5074866;28;20470;-69
2020/12/12 12:09:28;;;;;;;12.40;8.35;;;307.70;1510.40;;;;;;5074646;28;20029;-69
2020/12/12 12:11:54;;;;;;;13.05;7.00;;;307.60;1510.40;;;;;;5074587;28;20020;-69
2020/12/12 12:14:20;;;;;;;10.13;7.32;;;307.60;1484.80;;;;;;5074491;28;20385;-66
2020/12/12 12:16:47;;;;;;;12.15;7.05;;;307.50;1510.40;;;;;;5074691;28;20039;-66